Etusivu
METAR-TAF:

METAR-TAF

Lentoasemat :

Esbjerg, Tanska

Leveyspiiri: 55-32N, Pituuspiiri: 008-34E, korkeus merenpinnasta: 30 m

Tämänhetkinen sää

Tämä raportti tehtiin 23 minuuttia sitten, kello 04.50 UTC
Tuuli 4 kn pohjoisesta/koillisesta
Lämpötila 13°C
Kosteus 77%
Ilmanpaine 1009 hPa
Näkyvyys 10 km tai enemmän

METAR: EKEB 030450Z AUTO 02004KT 9999 NCD 13/09 Q1009

Aika: 07:13 (05:13 UTC)

Sääennuste

Tämä raportti tehtiin 2 tuntia ja 49 minuuttia sitten, kello 02.24 UTC
Ennuste voimassa 03. päivästä klo 03 UTC - 03. päivään klo 12 UTC
Tuuli 8 kn pohjoisesta
Näkyvyys 10 km tai enemmän
ei pilviä alle 1500 m:ssä eikä cumulonimbus-pilviä
Ajoittain
03. päivästä klo 10 UTC - 03. päivään klo 12 UTC
Näkyvyys: 3000 m
Hajanaisia pilviä 4000 ft:n korkeudessa, Cumulonimbus.
ukkosmyrsky, sadetta

TAF: EKEB 030224Z 0303/0312 01008KT CAVOK TEMPO 0310/0312 3000 TSRA SCT040CB

Säähavainnot ja -ennusteet yli 4000 lentoasemalta (METAR- ja TAF-raportit).

Käytössä olevat sääasemat on merkitty karttaan keltaisilla ja punaisilla pisteillä.

Aseta hiiri pisteen päälle nähdäksesi sääaseman nimen.

Klikkaa sitten nähdäksesi säähavainnot ja -ennusteet.

Kartan vaihtaminen: klikkaa mustalla rastilla varustettuja vihreitä pisteitä, niin voit zoomata sisään; viivalla varustettua vihreää pistettä, niin voit zoomata ulos tai vihreitä nuolia, niin pääset viereisille kartoille.


METAR-TAF: